sensor_id;sensor_type;location;lat;lon;timestamp;temperature;humidity
16140;DHT22;8175;49.326;12.690;2022-08-11T00:01:48;15.30;99.90
16140;DHT22;8175;49.326;12.690;2022-08-11T00:04:14;15.30;99.90
16140;DHT22;8175;49.326;12.690;2022-08-11T00:06:41;15.20;99.90
16140;DHT22;8175;49.326;12.690;2022-08-11T00:09:10;15.30;99.90
16140;DHT22;8175;49.326;12.690;2022-08-11T00:11:37;15.30;99.90
16140;DHT22;8175;49.326;12.690;2022-08-11T00:14:12;15.30;99.90
16140;DHT22;8175;49.326;12.690;2022-08-11T00:16:39;15.30;99.90
16140;DHT22;8175;49.326;12.690;2022-08-11T00:19:05;15.20;99.90
16140;DHT22;8175;49.326;12.690;2022-08-11T00:21:40;15.20;99.90
16140;DHT22;8175;49.326;12.690;2022-08-11T00:24:07;15.10;99.90
16140;DHT22;8175;49.326;12.690;2022-08-11T00:26:34;15.00;99.90
16140;DHT22;8175;49.326;12.690;2022-08-11T00:29:11;14.80;99.90
16140;DHT22;8175;49.326;12.690;2022-08-11T00:31:37;14.70;99.90
16140;DHT22;8175;49.326;12.690;2022-08-11T00:34:10;14.60;99.90
16140;DHT22;8175;49.326;12.690;2022-08-11T00:36:50;14.60;99.90
16140;DHT22;8175;49.326;12.690;2022-08-11T00:39:20;14.60;99.90
16140;DHT22;8175;49.326;12.690;2022-08-11T00:42:03;14.60;99.90
16140;DHT22;8175;49.326;12.690;2022-08-11T00:47:47;14.60;99.90
16140;DHT22;8175;49.326;12.690;2022-08-11T00:50:37;14.60;99.90
16140;DHT22;8175;49.326;12.690;2022-08-11T00:53:16;14.70;99.90
16140;DHT22;8175;49.326;12.690;2022-08-11T01:04:15;15.00;99.90
16140;DHT22;8175;49.326;12.690;2022-08-11T01:29:39;14.70;99.90
16140;DHT22;8175;49.326;12.690;2022-08-11T01:41:28;14.60;99.90
16140;DHT22;8175;49.326;12.690;2022-08-11T01:47:12;14.20;99.90
16140;DHT22;8175;49.326;12.690;2022-08-11T01:50:54;14.30;99.90
16140;DHT22;8175;49.326;12.690;2022-08-11T01:53:20;14.30;99.90
16140;DHT22;8175;49.326;12.690;2022-08-11T02:10:13;14.50;99.90
16140;DHT22;8175;49.326;12.690;2022-08-11T02:12:34;14.50;99.90
16140;DHT22;8175;49.326;12.690;2022-08-11T02:18:03;14.30;99.90
16140;DHT22;8175;49.326;12.690;2022-08-11T02:20:55;14.20;99.90
16140;DHT22;8175;49.326;12.690;2022-08-11T02:26:21;14.10;99.90
16140;DHT22;8175;49.326;12.690;2022-08-11T02:29:15;14.10;99.90
16140;DHT22;8175;49.326;12.690;2022-08-11T02:32:06;14.00;99.90
16140;DHT22;8175;49.326;12.690;2022-08-11T02:42:41;13.80;99.90
16140;DHT22;8175;49.326;12.690;2022-08-11T02:45:31;13.70;99.90
16140;DHT22;8175;49.326;12.690;2022-08-11T02:54:31;13.30;99.90
16140;DHT22;8175;49.326;12.690;2022-08-11T02:57:15;13.30;99.90
16140;DHT22;8175;49.326;12.690;2022-08-11T03:00:06;13.20;99.90
16140;DHT22;8175;49.326;12.690;2022-08-11T03:06:02;13.00;99.90
16140;DHT22;8175;49.326;12.690;2022-08-11T03:18:01;13.30;99.90
16140;DHT22;8175;49.326;12.690;2022-08-11T03:20:57;13.40;99.90
16140;DHT22;8175;49.326;12.690;2022-08-11T03:23:34;13.50;99.90
16140;DHT22;8175;49.326;12.690;2022-08-11T03:26:11;13.60;99.90
16140;DHT22;8175;49.326;12.690;2022-08-11T03:29:30;13.70;99.90
16140;DHT22;8175;49.326;12.690;2022-08-11T03:31:50;13.70;99.90
16140;DHT22;8175;49.326;12.690;2022-08-11T03:34:23;13.60;99.90
16140;DHT22;8175;49.326;12.690;2022-08-11T03:46:05;13.60;99.90
16140;DHT22;8175;49.326;12.690;2022-08-11T03:48:59;13.60;99.90
16140;DHT22;8175;49.326;12.690;2022-08-11T03:51:52;13.70;99.90
16140;DHT22;8175;49.326;12.690;2022-08-11T03:54:40;14.00;99.90
16140;DHT22;8175;49.326;12.690;2022-08-11T04:00:18;13.90;99.90
16140;DHT22;8175;49.326;12.690;2022-08-11T04:09:00;13.80;99.90
16140;DHT22;8175;49.326;12.690;2022-08-11T04:40:11;14.20;99.90
16140;DHT22;8175;49.326;12.690;2022-08-11T05:15:15;14.10;99.90
16140;DHT22;8175;49.326;12.690;2022-08-11T05:18:08;14.10;99.90
16140;DHT22;8175;49.326;12.690;2022-08-11T05:20:56;14.00;99.90
16140;DHT22;8175;49.326;12.690;2022-08-11T05:23:52;13.90;99.90
16140;DHT22;8175;49.326;12.690;2022-08-11T05:26:48;13.90;99.90
16140;DHT22;8175;49.326;12.690;2022-08-11T05:29:45;13.90;99.90
16140;DHT22;8175;49.326;12.690;2022-08-11T05:32:35;13.90;99.90
16140;DHT22;8175;49.326;12.690;2022-08-11T05:35:28;13.90;99.90
16140;DHT22;8175;49.326;12.690;2022-08-11T05:37:56;13.90;99.90
16140;DHT22;8175;49.326;12.690;2022-08-11T05:40:53;14.00;99.90
16140;DHT22;8175;49.326;12.690;2022-08-11T05:43:42;14.00;99.90
16140;DHT22;8175;49.326;12.690;2022-08-11T05:46:27;14.10;99.90
16140;DHT22;8175;49.326;12.690;2022-08-11T05:49:13;14.30;99.90
16140;DHT22;8175;49.326;12.690;2022-08-11T05:51:58;14.40;99.90
16140;DHT22;8175;49.326;12.690;2022-08-11T05:54:43;14.60;99.90
16140;DHT22;8175;49.326;12.690;2022-08-11T05:57:30;14.80;99.90
16140;DHT22;8175;49.326;12.690;2022-08-11T06:00:03;15.00;99.90
16140;DHT22;8175;49.326;12.690;2022-08-11T06:02:30;15.20;99.90
16140;DHT22;8175;49.326;12.690;2022-08-11T06:04:57;15.40;99.90
16140;DHT22;8175;49.326;12.690;2022-08-11T06:07:29;15.60;99.90
16140;DHT22;8175;49.326;12.690;2022-08-11T06:09:57;15.60;99.90
16140;DHT22;8175;49.326;12.690;2022-08-11T06:12:32;15.70;99.90
16140;DHT22;8175;49.326;12.690;2022-08-11T06:15:04;15.80;99.90
16140;DHT22;8175;49.326;12.690;2022-08-11T06:17:32;15.90;99.90
16140;DHT22;8175;49.326;12.690;2022-08-11T06:20:06;16.00;99.90
16140;DHT22;8175;49.326;12.690;2022-08-11T06:22:36;16.10;99.90
16140;DHT22;8175;49.326;12.690;2022-08-11T06:25:03;16.20;99.90
16140;DHT22;8175;49.326;12.690;2022-08-11T06:27:32;16.30;99.90
16140;DHT22;8175;49.326;12.690;2022-08-11T06:29:59;16.40;99.90
16140;DHT22;8175;49.326;12.690;2022-08-11T06:32:28;16.50;99.90
16140;DHT22;8175;49.326;12.690;2022-08-11T06:35:16;16.60;99.90
16140;DHT22;8175;49.326;12.690;2022-08-11T06:46:32;17.20;99.90
16140;DHT22;8175;49.326;12.690;2022-08-11T06:49:02;17.30;99.90
16140;DHT22;8175;49.326;12.690;2022-08-11T06:51:28;17.40;99.90
16140;DHT22;8175;49.326;12.690;2022-08-11T06:53:59;17.60;99.90
16140;DHT22;8175;49.326;12.690;2022-08-11T06:56:30;17.80;99.90
16140;DHT22;8175;49.326;12.690;2022-08-11T06:59:16;18.00;99.90
16140;DHT22;8175;49.326;12.690;2022-08-11T07:02:05;18.30;99.90
16140;DHT22;8175;49.326;12.690;2022-08-11T07:04:53;18.40;99.90
16140;DHT22;8175;49.326;12.690;2022-08-11T07:07:47;18.60;99.90
16140;DHT22;8175;49.326;12.690;2022-08-11T07:13:49;19.50;99.90
16140;DHT22;8175;49.326;12.690;2022-08-11T07:16:38;19.50;99.90
16140;DHT22;8175;49.326;12.690;2022-08-11T07:19:07;20.00;99.90
16140;DHT22;8175;49.326;12.690;2022-08-11T07:21:55;20.20;99.90
16140;DHT22;8175;49.326;12.690;2022-08-11T07:24:54;20.10;99.90
16140;DHT22;8175;49.326;12.690;2022-08-11T07:27:46;20.10;99.90
16140;DHT22;8175;49.326;12.690;2022-08-11T07:30:38;20.10;99.90
16140;DHT22;8175;49.326;12.690;2022-08-11T07:33:05;20.20;99.90
16140;DHT22;8175;49.326;12.690;2022-08-11T07:35:45;20.20;99.70
16140;DHT22;8175;49.326;12.690;2022-08-11T07:38:26;20.30;99.90
16140;DHT22;8175;49.326;12.690;2022-08-11T07:41:18;20.40;97.90
16140;DHT22;8175;49.326;12.690;2022-08-11T07:43:47;21.30;95.10
16140;DHT22;8175;49.326;12.690;2022-08-11T07:46:13;22.50;91.70
16140;DHT22;8175;49.326;12.690;2022-08-11T07:48:58;23.50;89.60
16140;DHT22;8175;49.326;12.690;2022-08-11T07:51:44;23.10;84.00
16140;DHT22;8175;49.326;12.690;2022-08-11T07:54:29;25.10;77.50
16140;DHT22;8175;49.326;12.690;2022-08-11T07:56:56;26.10;73.30
16140;DHT22;8175;49.326;12.690;2022-08-11T07:59:23;26.70;67.50
16140;DHT22;8175;49.326;12.690;2022-08-11T08:02:09;28.30;62.40
16140;DHT22;8175;49.326;12.690;2022-08-11T08:04:56;29.60;58.80
16140;DHT22;8175;49.326;12.690;2022-08-11T08:07:40;28.30;57.00
16140;DHT22;8175;49.326;12.690;2022-08-11T08:10:25;29.10;56.50
16140;DHT22;8175;49.326;12.690;2022-08-11T08:13:09;29.80;54.00
16140;DHT22;8175;49.326;12.690;2022-08-11T08:15:53;30.40;53.40
16140;DHT22;8175;49.326;12.690;2022-08-11T08:18:39;29.40;54.70
16140;DHT22;8175;49.326;12.690;2022-08-11T08:21:06;30.00;52.80
16140;DHT22;8175;49.326;12.690;2022-08-11T08:23:48;29.50;52.80
16140;DHT22;8175;49.326;12.690;2022-08-11T08:26:15;28.00;53.80
16140;DHT22;8175;49.326;12.690;2022-08-11T08:29:02;26.80;58.10
16140;DHT22;8175;49.326;12.690;2022-08-11T08:31:49;28.10;56.70
16140;DHT22;8175;49.326;12.690;2022-08-11T08:34:15;29.10;52.30
16140;DHT22;8175;49.326;12.690;2022-08-11T08:36:47;28.70;55.30
16140;DHT22;8175;49.326;12.690;2022-08-11T08:39:13;29.00;52.70
16140;DHT22;8175;49.326;12.690;2022-08-11T08:41:42;29.20;52.90
16140;DHT22;8175;49.326;12.690;2022-08-11T08:44:10;29.10;51.80
16140;DHT22;8175;49.326;12.690;2022-08-11T08:46:40;29.80;51.40
16140;DHT22;8175;49.326;12.690;2022-08-11T08:49:07;29.90;51.00
16140;DHT22;8175;49.326;12.690;2022-08-11T08:51:37;28.90;52.80
16140;DHT22;8175;49.326;12.690;2022-08-11T08:54:20;28.30;52.00
16140;DHT22;8175;49.326;12.690;2022-08-11T08:56:48;27.80;52.30
16140;DHT22;8175;49.326;12.690;2022-08-11T08:59:16;27.60;55.70
16140;DHT22;8175;49.326;12.690;2022-08-11T09:01:49;27.00;54.20
16140;DHT22;8175;49.326;12.690;2022-08-11T09:04:16;28.60;52.80
16140;DHT22;8175;49.326;12.690;2022-08-11T09:06:44;29.70;50.00
16140;DHT22;8175;49.326;12.690;2022-08-11T09:09:12;29.80;46.20
16140;DHT22;8175;49.326;12.690;2022-08-11T09:11:40;29.20;49.00
16140;DHT22;8175;49.326;12.690;2022-08-11T09:14:39;28.40;48.70
16140;DHT22;8175;49.326;12.690;2022-08-11T09:17:25;28.30;52.00
16140;DHT22;8175;49.326;12.690;2022-08-11T09:19:55;28.20;49.10
16140;DHT22;8175;49.326;12.690;2022-08-11T09:22:29;29.60;49.10
16140;DHT22;8175;49.326;12.690;2022-08-11T09:25:14;30.10;48.00
16140;DHT22;8175;49.326;12.690;2022-08-11T09:27:59;30.70;47.30
16140;DHT22;8175;49.326;12.690;2022-08-11T09:30:26;30.80;48.20
16140;DHT22;8175;49.326;12.690;2022-08-11T09:32:54;30.60;47.70
16140;DHT22;8175;49.326;12.690;2022-08-11T09:35:34;30.80;46.50
16140;DHT22;8175;49.326;12.690;2022-08-11T09:38:01;30.40;47.50
16140;DHT22;8175;49.326;12.690;2022-08-11T09:40:47;31.70;45.60
16140;DHT22;8175;49.326;12.690;2022-08-11T09:43:17;31.70;46.20
16140;DHT22;8175;49.326;12.690;2022-08-11T09:46:03;31.10;44.10
16140;DHT22;8175;49.326;12.690;2022-08-11T09:48:42;31.40;45.30
16140;DHT22;8175;49.326;12.690;2022-08-11T09:51:09;30.00;44.20
16140;DHT22;8175;49.326;12.690;2022-08-11T09:53:41;27.80;48.70
16140;DHT22;8175;49.326;12.690;2022-08-11T09:56:18;30.00;48.40
16140;DHT22;8175;49.326;12.690;2022-08-11T09:59:04;31.20;46.20
16140;DHT22;8175;49.326;12.690;2022-08-11T10:01:34;30.80;46.10
16140;DHT22;8175;49.326;12.690;2022-08-11T10:04:18;29.70;47.10
16140;DHT22;8175;49.326;12.690;2022-08-11T10:06:52;29.70;49.70
16140;DHT22;8175;49.326;12.690;2022-08-11T10:09:35;30.20;47.40
16140;DHT22;8175;49.326;12.690;2022-08-11T10:12:01;31.00;48.30
16140;DHT22;8175;49.326;12.690;2022-08-11T10:14:29;31.90;44.00
16140;DHT22;8175;49.326;12.690;2022-08-11T10:17:15;32.20;43.00
16140;DHT22;8175;49.326;12.690;2022-08-11T10:19:45;31.80;42.20
16140;DHT22;8175;49.326;12.690;2022-08-11T10:22:13;30.70;42.90
16140;DHT22;8175;49.326;12.690;2022-08-11T10:24:59;30.20;45.20
16140;DHT22;8175;49.326;12.690;2022-08-11T10:27:45;30.80;44.60
16140;DHT22;8175;49.326;12.690;2022-08-11T10:30:13;30.40;43.70
16140;DHT22;8175;49.326;12.690;2022-08-11T10:33:02;30.80;41.90
16140;DHT22;8175;49.326;12.690;2022-08-11T10:35:46;30.20;44.00
16140;DHT22;8175;49.326;12.690;2022-08-11T10:38:13;31.30;42.40
16140;DHT22;8175;49.326;12.690;2022-08-11T10:40:44;31.40;41.80
16140;DHT22;8175;49.326;12.690;2022-08-11T10:43:11;31.30;40.30
16140;DHT22;8175;49.326;12.690;2022-08-11T10:45:40;31.70;42.30
16140;DHT22;8175;49.326;12.690;2022-08-11T10:48:27;31.50;39.60
16140;DHT22;8175;49.326;12.690;2022-08-11T10:50:54;29.00;43.60
16140;DHT22;8175;49.326;12.690;2022-08-11T10:53:47;29.80;42.70
16140;DHT22;8175;49.326;12.690;2022-08-11T10:56:37;29.50;42.60
16140;DHT22;8175;49.326;12.690;2022-08-11T10:59:27;30.90;44.10
16140;DHT22;8175;49.326;12.690;2022-08-11T11:01:54;32.00;43.70
16140;DHT22;8175;49.326;12.690;2022-08-11T11:04:26;32.40;41.90
16140;DHT22;8175;49.326;12.690;2022-08-11T11:07:14;31.30;40.40
16140;DHT22;8175;49.326;12.690;2022-08-11T11:09:54;30.60;42.60
16140;DHT22;8175;49.326;12.690;2022-08-11T11:12:45;27.90;46.30
16140;DHT22;8175;49.326;12.690;2022-08-11T11:15:31;30.10;45.50
16140;DHT22;8175;49.326;12.690;2022-08-11T11:18:21;31.80;41.00
16140;DHT22;8175;49.326;12.690;2022-08-11T11:20:58;32.70;41.00
16140;DHT22;8175;49.326;12.690;2022-08-11T11:23:28;31.90;42.10
16140;DHT22;8175;49.326;12.690;2022-08-11T11:36:50;32.10;40.40
16140;DHT22;8175;49.326;12.690;2022-08-11T11:39:29;32.30;42.30
16140;DHT22;8175;49.326;12.690;2022-08-11T11:41:58;32.40;40.20
16140;DHT22;8175;49.326;12.690;2022-08-11T11:44:26;30.50;40.90
16140;DHT22;8175;49.326;12.690;2022-08-11T11:46:52;31.10;41.60
16140;DHT22;8175;49.326;12.690;2022-08-11T11:49:22;31.20;39.50
16140;DHT22;8175;49.326;12.690;2022-08-11T11:51:49;31.90;41.10
16140;DHT22;8175;49.326;12.690;2022-08-11T11:54:26;30.20;39.70
16140;DHT22;8175;49.326;12.690;2022-08-11T11:56:54;29.80;43.20
16140;DHT22;8175;49.326;12.690;2022-08-11T11:59:21;31.00;42.50
16140;DHT22;8175;49.326;12.690;2022-08-11T12:02:08;31.90;39.40
16140;DHT22;8175;49.326;12.690;2022-08-11T12:04:37;31.20;40.50
16140;DHT22;8175;49.326;12.690;2022-08-11T12:07:07;30.70;41.60
16140;DHT22;8175;49.326;12.690;2022-08-11T12:09:52;31.70;39.30
16140;DHT22;8175;49.326;12.690;2022-08-11T12:12:18;30.10;39.50
16140;DHT22;8175;49.326;12.690;2022-08-11T12:15:03;29.20;41.10
16140;DHT22;8175;49.326;12.690;2022-08-11T12:17:29;28.20;42.30
16140;DHT22;8175;49.326;12.690;2022-08-11T12:19:55;28.60;43.20
16140;DHT22;8175;49.326;12.690;2022-08-11T12:22:22;29.20;42.90
16140;DHT22;8175;49.326;12.690;2022-08-11T12:25:06;28.20;43.40
16140;DHT22;8175;49.326;12.690;2022-08-11T12:27:55;27.40;45.30
16140;DHT22;8175;49.326;12.690;2022-08-11T12:30:21;27.40;44.70
16140;DHT22;8175;49.326;12.690;2022-08-11T12:32:47;27.50;45.00
16140;DHT22;8175;49.326;12.690;2022-08-11T12:35:14;27.20;45.20
16140;DHT22;8175;49.326;12.690;2022-08-11T12:37:43;27.90;45.60
16140;DHT22;8175;49.326;12.690;2022-08-11T12:40:13;27.80;44.00
16140;DHT22;8175;49.326;12.690;2022-08-11T12:43:03;27.70;48.30
16140;DHT22;8175;49.326;12.690;2022-08-11T12:45:54;27.00;46.20
16140;DHT22;8175;49.326;12.690;2022-08-11T12:48:23;26.50;47.20
16140;DHT22;8175;49.326;12.690;2022-08-11T12:51:11;27.30;47.30
16140;DHT22;8175;49.326;12.690;2022-08-11T12:54:05;27.90;46.70
16140;DHT22;8175;49.326;12.690;2022-08-11T12:56:37;27.80;45.20
16140;DHT22;8175;49.326;12.690;2022-08-11T12:59:23;26.80;48.30
16140;DHT22;8175;49.326;12.690;2022-08-11T13:02:13;28.40;47.40
16140;DHT22;8175;49.326;12.690;2022-08-11T13:04:58;28.70;45.70
16140;DHT22;8175;49.326;12.690;2022-08-11T13:07:26;28.90;44.60
16140;DHT22;8175;49.326;12.690;2022-08-11T13:09:53;28.70;46.00
16140;DHT22;8175;49.326;12.690;2022-08-11T13:12:22;27.60;46.00
16140;DHT22;8175;49.326;12.690;2022-08-11T13:15:07;27.20;47.70
16140;DHT22;8175;49.326;12.690;2022-08-11T13:17:34;26.70;48.40
16140;DHT22;8175;49.326;12.690;2022-08-11T13:20:00;27.20;47.20
16140;DHT22;8175;49.326;12.690;2022-08-11T13:22:27;28.10;46.20
16140;DHT22;8175;49.326;12.690;2022-08-11T13:24:54;29.80;45.00
16140;DHT22;8175;49.326;12.690;2022-08-11T13:27:22;30.00;44.30
16140;DHT22;8175;49.326;12.690;2022-08-11T13:29:49;30.70;43.30
16140;DHT22;8175;49.326;12.690;2022-08-11T13:32:36;29.10;42.90
16140;DHT22;8175;49.326;12.690;2022-08-11T13:35:03;29.00;45.60
16140;DHT22;8175;49.326;12.690;2022-08-11T13:37:29;29.80;43.80
16140;DHT22;8175;49.326;12.690;2022-08-11T13:39:55;30.40;42.30
16140;DHT22;8175;49.326;12.690;2022-08-11T13:42:23;29.20;44.10
16140;DHT22;8175;49.326;12.690;2022-08-11T13:44:49;29.50;42.70
16140;DHT22;8175;49.326;12.690;2022-08-11T13:47:15;30.90;42.70
16140;DHT22;8175;49.326;12.690;2022-08-11T13:49:43;30.50;43.20
16140;DHT22;8175;49.326;12.690;2022-08-11T13:52:12;31.30;41.90
16140;DHT22;8175;49.326;12.690;2022-08-11T13:54:39;30.30;41.10
16140;DHT22;8175;49.326;12.690;2022-08-11T13:57:07;29.60;42.60
16140;DHT22;8175;49.326;12.690;2022-08-11T13:59:34;29.80;41.60
16140;DHT22;8175;49.326;12.690;2022-08-11T14:02:06;28.80;44.40
16140;DHT22;8175;49.326;12.690;2022-08-11T14:04:40;28.90;44.60
16140;DHT22;8175;49.326;12.690;2022-08-11T14:07:09;29.30;44.10
16140;DHT22;8175;49.326;12.690;2022-08-11T14:09:41;29.70;42.70
16140;DHT22;8175;49.326;12.690;2022-08-11T14:12:14;30.40;41.40
16140;DHT22;8175;49.326;12.690;2022-08-11T14:17:47;30.80;40.60
16140;DHT22;8175;49.326;12.690;2022-08-11T14:20:17;31.60;39.20
16140;DHT22;8175;49.326;12.690;2022-08-11T14:22:44;31.00;42.10
16140;DHT22;8175;49.326;12.690;2022-08-11T14:25:13;29.70;42.60
16140;DHT22;8175;49.326;12.690;2022-08-11T14:27:42;29.10;43.40
16140;DHT22;8175;49.326;12.690;2022-08-11T14:30:08;28.90;44.90
16140;DHT22;8175;49.326;12.690;2022-08-11T14:32:55;29.10;43.90
16140;DHT22;8175;49.326;12.690;2022-08-11T14:35:22;29.40;44.40
16140;DHT22;8175;49.326;12.690;2022-08-11T14:37:48;29.90;43.40
16140;DHT22;8175;49.326;12.690;2022-08-11T14:40:15;29.70;41.80
16140;DHT22;8175;49.326;12.690;2022-08-11T14:43:01;29.30;42.40
16140;DHT22;8175;49.326;12.690;2022-08-11T14:45:45;28.20;43.40
16140;DHT22;8175;49.326;12.690;2022-08-11T14:48:30;28.40;44.90
16140;DHT22;8175;49.326;12.690;2022-08-11T14:50:56;27.80;45.20
16140;DHT22;8175;49.326;12.690;2022-08-11T14:53:23;27.60;45.70
16140;DHT22;8175;49.326;12.690;2022-08-11T14:55:49;27.80;44.30
16140;DHT22;8175;49.326;12.690;2022-08-11T14:58:35;28.70;44.50
16140;DHT22;8175;49.326;12.690;2022-08-11T15:01:02;27.50;45.20
16140;DHT22;8175;49.326;12.690;2022-08-11T15:03:48;27.30;46.30
16140;DHT22;8175;49.326;12.690;2022-08-11T15:06:16;27.70;46.60
16140;DHT22;8175;49.326;12.690;2022-08-11T15:08:42;27.40;47.00
16140;DHT22;8175;49.326;12.690;2022-08-11T15:11:23;28.20;46.70
16140;DHT22;8175;49.326;12.690;2022-08-11T15:14:09;27.30;47.10
16140;DHT22;8175;49.326;12.690;2022-08-11T15:16:37;27.60;47.50
16140;DHT22;8175;49.326;12.690;2022-08-11T15:19:24;28.30;45.90
16140;DHT22;8175;49.326;12.690;2022-08-11T15:21:50;28.60;45.20
16140;DHT22;8175;49.326;12.690;2022-08-11T15:24:35;28.60;45.20
16140;DHT22;8175;49.326;12.690;2022-08-11T15:27:04;27.60;45.60
16140;DHT22;8175;49.326;12.690;2022-08-11T15:29:51;26.90;47.20
16140;DHT22;8175;49.326;12.690;2022-08-11T15:32:38;27.20;46.30
16140;DHT22;8175;49.326;12.690;2022-08-11T15:35:25;27.60;47.20
16140;DHT22;8175;49.326;12.690;2022-08-11T15:38:11;28.00;47.20
16140;DHT22;8175;49.326;12.690;2022-08-11T15:40:39;27.90;47.50
16140;DHT22;8175;49.326;12.690;2022-08-11T15:43:28;27.90;47.30
16140;DHT22;8175;49.326;12.690;2022-08-11T15:46:29;27.70;46.90
16140;DHT22;8175;49.326;12.690;2022-08-11T15:51:48;25.80;49.70
16140;DHT22;8175;49.326;12.690;2022-08-11T15:54:24;26.10;49.70
16140;DHT22;8175;49.326;12.690;2022-08-11T15:56:52;25.60;49.90
16140;DHT22;8175;49.326;12.690;2022-08-11T15:59:20;25.90;49.80
16140;DHT22;8175;49.326;12.690;2022-08-11T16:02:09;25.80;50.90
16140;DHT22;8175;49.326;12.690;2022-08-11T16:04:56;25.80;51.10
16140;DHT22;8175;49.326;12.690;2022-08-11T16:07:26;26.10;50.20
16140;DHT22;8175;49.326;12.690;2022-08-11T16:09:55;26.30;50.70
16140;DHT22;8175;49.326;12.690;2022-08-11T16:12:25;26.00;50.30
16140;DHT22;8175;49.326;12.690;2022-08-11T16:15:02;26.30;49.90
16140;DHT22;8175;49.326;12.690;2022-08-11T16:17:52;26.40;50.80
16140;DHT22;8175;49.326;12.690;2022-08-11T16:20:24;26.10;49.90
16140;DHT22;8175;49.326;12.690;2022-08-11T16:22:53;26.30;50.70
16140;DHT22;8175;49.326;12.690;2022-08-11T16:25:23;26.00;50.30
16140;DHT22;8175;49.326;12.690;2022-08-11T16:27:57;26.00;49.30
16140;DHT22;8175;49.326;12.690;2022-08-11T16:30:28;25.90;50.50
16140;DHT22;8175;49.326;12.690;2022-08-11T16:32:57;25.40;52.30
16140;DHT22;8175;49.326;12.690;2022-08-11T16:35:24;25.60;50.60
16140;DHT22;8175;49.326;12.690;2022-08-11T16:38:10;25.60;51.30
16140;DHT22;8175;49.326;12.690;2022-08-11T16:40:59;25.60;51.70
16140;DHT22;8175;49.326;12.690;2022-08-11T16:43:28;26.00;50.60
16140;DHT22;8175;49.326;12.690;2022-08-11T16:46:16;25.70;51.60
16140;DHT22;8175;49.326;12.690;2022-08-11T16:49:15;26.20;50.70
16140;DHT22;8175;49.326;12.690;2022-08-11T16:51:42;26.70;50.40
16140;DHT22;8175;49.326;12.690;2022-08-11T16:54:08;26.40;49.40
16140;DHT22;8175;49.326;12.690;2022-08-11T16:56:42;25.80;50.50
16140;DHT22;8175;49.326;12.690;2022-08-11T16:59:21;25.70;50.40
16140;DHT22;8175;49.326;12.690;2022-08-11T17:01:53;25.30;52.10
16140;DHT22;8175;49.326;12.690;2022-08-11T17:04:30;24.80;52.90
16140;DHT22;8175;49.326;12.690;2022-08-11T17:07:20;24.80;53.20
16140;DHT22;8175;49.326;12.690;2022-08-11T17:10:06;25.10;52.50
16140;DHT22;8175;49.326;12.690;2022-08-11T17:12:54;25.20;52.90
16140;DHT22;8175;49.326;12.690;2022-08-11T17:15:37;24.80;52.60
16140;DHT22;8175;49.326;12.690;2022-08-11T17:23:50;23.70;54.80
16140;DHT22;8175;49.326;12.690;2022-08-11T17:26:25;23.50;55.50
16140;DHT22;8175;49.326;12.690;2022-08-11T17:28:56;23.40;55.80
16140;DHT22;8175;49.326;12.690;2022-08-11T17:31:23;23.30;56.20
16140;DHT22;8175;49.326;12.690;2022-08-11T17:34:10;23.10;55.70
16140;DHT22;8175;49.326;12.690;2022-08-11T17:36:55;22.80;55.80
16140;DHT22;8175;49.326;12.690;2022-08-11T17:39:25;22.60;56.00
16140;DHT22;8175;49.326;12.690;2022-08-11T17:41:53;22.50;57.20
16140;DHT22;8175;49.326;12.690;2022-08-11T17:44:39;22.30;56.70
16140;DHT22;8175;49.326;12.690;2022-08-11T17:47:25;22.10;57.50
16140;DHT22;8175;49.326;12.690;2022-08-11T17:50:11;22.00;56.90
16140;DHT22;8175;49.326;12.690;2022-08-11T17:52:38;21.80;57.70
16140;DHT22;8175;49.326;12.690;2022-08-11T17:55:24;21.70;57.10
16140;DHT22;8175;49.326;12.690;2022-08-11T17:58:08;21.50;57.90
16140;DHT22;8175;49.326;12.690;2022-08-11T18:00:53;21.40;59.60
16140;DHT22;8175;49.326;12.690;2022-08-11T18:03:20;21.30;58.50
16140;DHT22;8175;49.326;12.690;2022-08-11T18:06:05;21.20;58.80
16140;DHT22;8175;49.326;12.690;2022-08-11T18:08:32;21.00;59.60
16140;DHT22;8175;49.326;12.690;2022-08-11T18:11:18;20.80;59.90
16140;DHT22;8175;49.326;12.690;2022-08-11T18:14:05;20.60;60.10
16140;DHT22;8175;49.326;12.690;2022-08-11T18:16:50;20.40;61.10
16140;DHT22;8175;49.326;12.690;2022-08-11T18:19:35;20.10;62.50
16140;DHT22;8175;49.326;12.690;2022-08-11T18:22:22;19.90;63.00
16140;DHT22;8175;49.326;12.690;2022-08-11T18:25:16;19.70;63.10
16140;DHT22;8175;49.326;12.690;2022-08-11T18:28:05;19.40;64.10
16140;DHT22;8175;49.326;12.690;2022-08-11T18:30:51;19.10;65.40
16140;DHT22;8175;49.326;12.690;2022-08-11T18:33:42;18.90;65.80
16140;DHT22;8175;49.326;12.690;2022-08-11T18:36:34;18.70;67.20
16140;DHT22;8175;49.326;12.690;2022-08-11T18:39:20;18.50;67.50
16140;DHT22;8175;49.326;12.690;2022-08-11T18:42:11;18.30;68.50
16140;DHT22;8175;49.326;12.690;2022-08-11T18:45:00;18.20;68.70
16140;DHT22;8175;49.326;12.690;2022-08-11T18:47:46;18.00;69.00
16140;DHT22;8175;49.326;12.690;2022-08-11T18:50:31;18.00;69.00
16140;DHT22;8175;49.326;12.690;2022-08-11T18:53:17;18.00;69.70
16140;DHT22;8175;49.326;12.690;2022-08-11T18:56:02;17.90;70.70
16140;DHT22;8175;49.326;12.690;2022-08-11T18:58:47;17.80;70.50
16140;DHT22;8175;49.326;12.690;2022-08-11T19:01:35;17.80;71.30
16140;DHT22;8175;49.326;12.690;2022-08-11T19:04:21;17.70;71.80
16140;DHT22;8175;49.326;12.690;2022-08-11T19:07:08;17.60;71.10
16140;DHT22;8175;49.326;12.690;2022-08-11T19:09:53;17.70;71.10
16140;DHT22;8175;49.326;12.690;2022-08-11T19:12:40;17.70;71.50
16140;DHT22;8175;49.326;12.690;2022-08-11T19:15:25;17.60;71.40
16140;DHT22;8175;49.326;12.690;2022-08-11T19:18:14;17.80;70.80
16140;DHT22;8175;49.326;12.690;2022-08-11T19:21:00;17.90;70.30
16140;DHT22;8175;49.326;12.690;2022-08-11T19:23:48;18.30;69.10
16140;DHT22;8175;49.326;12.690;2022-08-11T19:26:33;18.00;69.10
16140;DHT22;8175;49.326;12.690;2022-08-11T19:29:18;18.20;69.00
16140;DHT22;8175;49.326;12.690;2022-08-11T19:32:03;18.00;70.20
16140;DHT22;8175;49.326;12.690;2022-08-11T19:34:48;17.80;69.60
16140;DHT22;8175;49.326;12.690;2022-08-11T19:37:34;17.70;70.70
16140;DHT22;8175;49.326;12.690;2022-08-11T19:40:19;17.70;70.20
16140;DHT22;8175;49.326;12.690;2022-08-11T19:43:05;17.80;69.90
16140;DHT22;8175;49.326;12.690;2022-08-11T19:45:52;17.80;70.20
16140;DHT22;8175;49.326;12.690;2022-08-11T19:48:38;17.80;69.50
16140;DHT22;8175;49.326;12.690;2022-08-11T19:51:23;17.90;68.60
16140;DHT22;8175;49.326;12.690;2022-08-11T19:54:08;18.30;68.10
16140;DHT22;8175;49.326;12.690;2022-08-11T19:56:53;18.60;66.40
16140;DHT22;8175;49.326;12.690;2022-08-11T19:59:38;18.50;67.10
16140;DHT22;8175;49.326;12.690;2022-08-11T20:02:23;18.40;67.00
16140;DHT22;8175;49.326;12.690;2022-08-11T20:05:07;18.10;68.30